Time;durP1;ratioP1;P1;durP2;ratioP2;P2;SDS_P1;SDS_P2;PMS_P1;PMS_P2;Temp;Humidity;BMP_temperature;BMP_pressure;BME280_temperature;BME280_humidity;BME280_pressure;Samples;Min_cycle;Max_cycle;Signal;HPM_P1;HPM_P2
2024/02/25 00:02:13;;;;;;;18.23;5.53;;;;;;;4.12;100.00;99991.66;5039070;28;20044;-67
2024/02/25 00:04:38;;;;;;;17.30;5.90;;;;;;;4.13;100.00;99990.66;5041307;28;20028;-69
2024/02/25 00:07:04;;;;;;;23.60;6.05;;;;;;;4.17;100.00;99989.31;5040889;28;20067;-68
2024/02/25 00:09:29;;;;;;;23.10;5.80;;;;;;;4.18;100.00;99993.63;5041649;28;20034;-67
2024/02/25 00:11:55;;;;;;;23.73;6.25;;;;;;;4.18;100.00;99998.94;5042534;28;20076;-69
2024/02/25 00:14:20;;;;;;;19.30;6.28;;;;;;;4.18;100.00;99992.81;5041124;28;20034;-69
2024/02/25 00:16:46;;;;;;;16.77;5.97;;;;;;;4.18;100.00;99982.97;5041115;28;20033;-68
2024/02/25 00:19:11;;;;;;;21.90;6.13;;;;;;;4.19;100.00;99987.28;5041746;28;20036;-68
2024/02/25 00:21:37;;;;;;;15.52;5.82;;;;;;;4.20;100.00;99988.09;5027182;28;20033;-69
2024/02/25 00:24:02;;;;;;;22.65;6.68;;;;;;;4.20;100.00;99980.94;5045664;28;20029;-68
2024/02/25 00:26:27;;;;;;;18.48;6.38;;;;;;;4.22;100.00;99994.09;5041191;28;20110;-67
2024/02/25 00:28:54;;;;;;;18.88;6.68;;;;;;;4.22;100.00;99994.91;5042018;28;20096;-69
2024/02/25 00:31:20;;;;;;;15.40;6.25;;;;;;;4.07;100.00;99964.72;5042081;28;20044;-68
2024/02/25 00:33:46;;;;;;;16.55;5.93;;;;;;;4.25;100.00;99999.06;5041678;28;20112;-68
2024/02/25 00:36:12;;;;;;;18.73;6.72;;;;;;;4.25;100.00;99991.09;5041347;28;20045;-68
2024/02/25 00:38:37;;;;;;;22.27;6.88;;;;;;;4.27;100.00;99999.69;5040268;28;20068;-67
2024/02/25 00:41:03;;;;;;;22.05;6.75;;;;;;;4.27;100.00;99990.88;5040832;28;20029;-70
2024/02/25 00:43:29;;;;;;;16.75;6.70;;;;;;;4.29;100.00;99991.56;5040556;28;20025;-69
2024/02/25 00:45:55;;;;;;;17.35;6.30;;;;;;;4.13;100.00;99969.34;5041425;28;20053;-69
2024/02/25 00:48:20;;;;;;;21.25;6.28;;;;;;;4.28;100.00;99984.56;5045112;28;20026;-69
2024/02/25 00:50:46;;;;;;;21.33;6.57;;;;;;;4.29;100.00;99989.72;5043264;28;20052;-68
2024/02/25 00:53:11;;;;;;;21.48;6.50;;;;;;;4.29;100.00;99987.03;5043238;28;20037;-68
2024/02/25 00:55:36;;;;;;;18.40;5.65;;;;;;;4.29;100.00;99992.38;5041864;28;20025;-67
2024/02/25 00:58:02;;;;;;;15.20;6.10;;;;;;;4.30;100.00;99985.22;5041370;28;20029;-70
2024/02/25 01:00:27;;;;;;;16.65;6.50;;;;;;;4.31;100.00;99986.88;5041954;28;20179;-68
2024/02/25 01:02:52;;;;;;;21.23;6.22;;;;;;;4.30;100.00;99990.53;5042783;28;20029;-70
2024/02/25 01:05:18;;;;;;;23.75;6.38;;;;;;;4.31;100.00;99986.88;5025625;28;20030;-74
2024/02/25 01:07:44;;;;;;;17.85;6.10;;;;;;;4.13;100.00;99964.03;5042264;28;20033;-70
2024/02/25 01:10:09;;;;;;;19.70;6.03;;;;;;;4.32;100.00;99993.84;5043364;28;20030;-70
2024/02/25 01:12:35;;;;;;;19.92;6.72;;;;;;;4.30;100.00;99990.53;5043554;28;20030;-68
2024/02/25 01:15:00;;;;;;;21.30;6.10;;;;;;;4.20;100.00;99970.28;5041601;28;20057;-68
2024/02/25 01:17:26;;;;;;;22.65;6.30;;;;;;;4.33;100.00;99992.84;5041445;28;20258;-68
2024/02/25 01:19:51;;;;;;;15.57;6.82;;;;;;;4.19;100.00;99968.66;5041676;28;20481;-69
2024/02/25 01:22:17;;;;;;;13.55;6.47;;;;;;;4.32;100.00;99992.03;5040918;28;20042;-68
2024/02/25 01:24:42;;;;;;;17.83;7.18;;;;;;;4.32;100.00;99996.53;5040322;28;20116;-68
2024/02/25 01:27:08;;;;;;;20.20;6.70;;;;;;;4.32;100.00;100000.00;5036150;28;20029;-68
2024/02/25 01:29:33;;;;;;;21.67;7.30;;;;;;;4.31;100.00;99989.56;5033896;28;20054;-68
2024/02/25 01:32:02;;;;;;;19.58;6.63;;;;;;;4.28;100.00;99992.56;5037517;28;20034;-70
2024/02/25 01:34:28;;;;;;;21.52;6.70;;;;;;;4.26;100.00;99991.91;5037426;28;20048;-68
2024/02/25 01:36:53;;;;;;;21.63;7.05;;;;;;;4.06;100.00;99957.75;5041819;28;20025;-68
2024/02/25 01:39:22;;;;;;;19.85;6.93;;;;;;;4.22;100.00;99981.59;5040606;28;20049;-68
2024/02/25 01:41:48;;;;;;;15.43;6.00;;;;;;;4.21;100.00;99979.97;5041688;28;20040;-68
2024/02/25 01:44:13;;;;;;;19.45;6.25;;;;;;;4.16;100.00;99979.66;5022586;28;20033;-68
2024/02/25 01:46:40;;;;;;;19.02;5.68;;;;;;;4.17;100.00;99970.69;5022345;28;20531;-70
2024/02/25 01:49:05;;;;;;;16.30;6.05;;;;;;;4.16;100.00;99970.84;5040355;28;20049;-68
2024/02/25 01:51:31;;;;;;;15.60;5.93;;;;;;;4.15;100.00;99975.34;5038222;28;20037;-69
2024/02/25 01:53:57;;;;;;;13.63;5.60;;;;;;;4.13;100.00;99974.69;5040177;28;20037;-67
2024/02/25 01:56:23;;;;;;;14.30;5.20;;;;;;;4.13;100.00;99979.19;5041150;28;20663;-68
2024/02/25 01:58:53;;;;;;;9.50;4.78;;;;;;;4.03;100.00;99963.44;5040389;28;20044;-69
2024/02/25 02:01:19;;;;;;;8.20;5.00;;;;;;;4.03;100.00;99963.44;5041206;28;20033;-68
2024/02/25 02:03:45;;;;;;;7.50;4.90;;;;;;;4.12;100.00;99982.84;5025086;28;20041;-68
2024/02/25 02:06:11;;;;;;;11.55;4.53;;;;;;;4.12;100.00;99985.53;5042089;28;20092;-69
2024/02/25 02:08:39;;;;;;;7.50;4.13;;;;;;;4.12;100.00;99989.00;5041714;28;20030;-67
2024/02/25 02:11:23;;;;;;;7.70;3.70;;;;;;;4.11;100.00;99994.53;5021548;28;20103;-68
2024/02/25 02:13:48;;;;;;;5.53;3.30;;;;;;;4.08;100.00;99990.38;5039478;28;20029;-68
2024/02/25 02:16:18;;;;;;;5.13;2.60;;;;;;;4.04;100.00;99989.06;5021453;28;20112;-68
2024/02/25 02:18:44;;;;;;;7.97;2.85;;;;;;;3.90;100.00;99966.69;5023370;28;20040;-79
2024/02/25 02:21:17;;;;;;;7.53;2.67;;;;;;;3.91;100.00;99979.00;5036454;28;20040;-68
2024/02/25 02:23:43;;;;;;;5.15;2.47;;;;;;;3.89;100.00;99970.34;5036910;28;20029;-69
2024/02/25 02:26:08;;;;;;;9.00;3.08;;;;;;;4.01;100.00;99986.75;5034231;28;20024;-69
2024/02/25 02:28:35;;;;;;;6.15;2.95;;;;;;;4.02;100.00;99993.72;5038679;28;20088;-68
2024/02/25 02:31:00;;;;;;;7.32;2.95;;;;;;;4.03;100.00;99983.91;5037188;28;20033;-69
2024/02/25 02:33:26;;;;;;;7.15;2.97;;;;;;;4.04;100.00;99989.06;5037672;28;20091;-69
2024/02/25 02:35:52;;;;;;;11.02;3.67;;;;;;;4.05;100.00;99988.06;5038650;28;20048;-69
2024/02/25 02:38:19;;;;;;;7.80;3.33;;;;;;;4.06;100.00;99986.22;5037362;28;20422;-70
2024/02/25 02:40:44;;;;;;;6.47;3.45;;;;;;;4.08;100.00;99997.53;5037133;28;20603;-68
2024/02/25 02:43:10;;;;;;;9.40;4.07;;;;;;;4.10;100.00;99993.66;5038851;28;20088;-68
2024/02/25 02:45:36;;;;;;;8.15;3.97;;;;;;;4.00;100.00;99977.91;5038300;28;20036;-69
2024/02/25 02:48:03;;;;;;;10.50;4.55;;;;;;;4.13;100.00;99995.16;5038427;28;20032;-68
2024/02/25 02:50:29;;;;;;;12.38;4.78;;;;;;;4.12;100.00;99991.66;5038778;28;20021;-68
2024/02/25 02:52:54;;;;;;;14.90;5.82;;;;;;;4.11;100.00;99995.34;5004663;28;20097;-68
2024/02/25 02:55:20;;;;;;;9.43;5.25;;;;;;;4.12;100.00;100002.31;5020272;28;20033;-68
2024/02/25 02:57:45;;;;;;;17.77;5.63;;;;;;;4.02;100.00;99976.94;5020615;28;20112;-69
2024/02/25 03:00:12;;;;;;;12.57;4.38;;;;;;;4.15;100.00;100009.94;5036972;28;20048;-68
2024/02/25 03:02:37;;;;;;;15.00;4.30;;;;;;;4.13;100.00;100003.13;5036898;28;20037;-69
2024/02/25 03:05:03;;;;;;;14.50;3.70;;;;;;;4.08;100.00;100009.00;5039473;28;20536;-70
2024/02/25 03:07:28;;;;;;;8.75;2.30;;;;;;;4.03;100.00;100011.34;5037119;28;20059;-69
2024/02/25 03:09:53;;;;;;;7.22;1.70;;;;;;;3.95;100.00;100012.25;5036869;28;20107;-68
2024/02/25 03:12:19;;;;;;;14.82;1.83;;;;;;;3.93;100.00;100022.22;5037938;28;20396;-68
2024/02/25 03:14:45;;;;;;;5.63;1.35;;;;;;;3.82;100.00;100006.66;5039004;28;20065;-69
2024/02/25 03:17:10;;;;;;;5.25;1.20;;;;;;;3.78;100.00;100008.03;5041292;28;20040;-69
2024/02/25 03:19:36;;;;;;;8.50;1.15;;;;;;;3.78;100.00;100021.34;5038739;28;20025;-73
2024/02/25 03:22:02;;;;;;;9.13;1.10;;;;;;;3.76;100.00;100032.13;5039572;28;20582;-69
2024/02/25 03:24:27;;;;;;;5.32;1.17;;;;;;;3.71;100.00;100023.84;5040475;28;20022;-68
2024/02/25 03:26:53;;;;;;;6.68;1.60;;;;;;;3.66;100.00;100012.88;5041074;28;20088;-68
2024/02/25 03:29:18;;;;;;;4.93;1.30;;;;;;;3.66;100.00;100018.22;5039857;28;20057;-68
2024/02/25 03:31:44;;;;;;;11.98;1.65;;;;;;;3.67;100.00;100017.19;5039780;28;20499;-69
2024/02/25 03:34:09;;;;;;;6.55;1.40;;;;;;;3.61;100.00;100015.25;5038823;28;20404;-68
2024/02/25 03:36:36;;;;;;;5.63;1.15;;;;;;;3.64;100.00;100016.72;5039649;28;20025;-68
2024/02/25 03:39:01;;;;;;;8.15;1.17;;;;;;;3.63;100.00;100015.91;5038308;28;20216;-69
2024/02/25 03:41:27;;;;;;;5.13;1.20;;;;;;;3.31;100.00;99958.34;5035433;28;20044;-68
2024/02/25 03:43:52;;;;;;;8.40;1.27;;;;;;;3.62;100.00;100014.25;5019378;28;20071;-68
2024/02/25 03:46:18;;;;;;;4.82;0.90;;;;;;;3.63;100.00;100020.41;5037997;28;20087;-68
2024/02/25 03:48:43;;;;;;;8.35;1.27;;;;;;;3.62;100.00;100016.09;5037534;28;20029;-68
2024/02/25 03:51:10;;;;;;;5.55;1.20;;;;;;;3.62;100.00;100014.25;5037088;28;20376;-69
2024/02/25 03:53:36;;;;;;;7.00;1.67;;;;;;;3.61;100.00;100011.75;5037714;28;20029;-68
2024/02/25 03:56:01;;;;;;;5.55;1.02;;;;;;;3.63;100.00;100015.06;5039641;28;20224;-68
2024/02/25 03:58:26;;;;;;;4.85;1.60;;;;;;;3.56;100.00;100006.97;5042738;28;20049;-69
2024/02/25 04:00:52;;;;;;;4.32;1.30;;;;;;;3.61;100.00;100012.59;5041043;28;20028;-69
2024/02/25 04:03:17;;;;;;;2.33;1.10;;;;;;;3.53;100.00;99994.00;5041172;28;20032;-68
2024/02/25 04:05:43;;;;;;;9.93;1.65;;;;;;;3.66;100.00;100020.06;5007394;28;20388;-68
2024/02/25 04:08:08;;;;;;;7.20;2.10;;;;;;;3.51;100.00;99998.69;5041970;28;20025;-68
2024/02/25 04:10:34;;;;;;;8.73;1.80;;;;;;;3.70;100.00;100024.84;5040683;28;20033;-69
2024/02/25 04:13:00;;;;;;;7.38;2.15;;;;;;;3.72;100.00;100028.16;5041291;28;20044;-70
2024/02/25 04:15:25;;;;;;;9.70;2.80;;;;;;;3.71;100.00;100025.69;5040722;28;20033;-68
2024/02/25 04:17:51;;;;;;;11.90;3.22;;;;;;;3.73;100.00;100021.84;5023621;28;20021;-68
2024/02/25 04:20:16;;;;;;;11.15;4.25;;;;;;;3.74;100.00;100026.16;5040783;28;20029;-69
2024/02/25 04:22:42;;;;;;;13.82;4.50;;;;;;;3.80;100.00;100027.28;5041494;28;20530;-68
2024/02/25 04:25:09;;;;;;;15.73;5.68;;;;;;;3.75;100.00;100014.50;5023474;28;20030;-68
2024/02/25 04:27:34;;;;;;;14.27;6.13;;;;;;;3.76;100.00;100010.03;5023083;28;20103;-69
2024/02/25 04:30:00;;;;;;;17.63;6.70;;;;;;;3.85;100.00;100024.13;5039427;28;20481;-72
2024/02/25 04:32:25;;;;;;;15.90;6.78;;;;;;;3.79;100.00;100000.88;5040389;28;20048;-68
2024/02/25 04:34:51;;;;;;;14.10;6.88;;;;;;;3.76;100.00;100021.50;5039420;28;20029;-68
2024/02/25 04:37:16;;;;;;;16.92;7.60;;;;;;;3.68;100.00;99996.78;5039053;28;20025;-69
2024/02/25 04:39:41;;;;;;;19.52;7.43;;;;;;;3.88;100.00;100021.94;5040105;28;20049;-68
2024/02/25 04:42:07;;;;;;;17.00;7.78;;;;;;;3.88;100.00;100019.28;5039184;28;20108;-68
2024/02/25 04:44:34;;;;;;;20.83;8.85;;;;;;;3.79;100.00;100009.66;5023209;28;20138;-68
2024/02/25 04:47:00;;;;;;;14.10;7.97;;;;;;;3.83;100.00;100015.47;5038608;28;20033;-68
2024/02/25 04:49:25;;;;;;;17.83;8.50;;;;;;;3.92;100.00;100025.06;5038729;28;20068;-69
2024/02/25 04:51:51;;;;;;;17.15;9.38;;;;;;;3.69;100.00;99993.94;5039533;28;20193;-70
2024/02/25 04:54:16;;;;;;;16.23;9.75;;;;;;;3.95;100.00;100032.72;5038610;28;20037;-68
2024/02/25 04:56:45;;;;;;;21.65;9.00;;;;;;;3.90;100.00;100033.22;5038646;28;20029;-68
2024/02/25 04:59:11;;;;;;;17.73;8.98;;;;;;;3.89;100.00;100026.25;5039635;28;20655;-69
2024/02/25 05:01:47;;;;;;;17.33;9.10;;;;;;;3.89;100.00;100030.75;5039999;28;20026;-68
2024/02/25 05:04:12;;;;;;;18.63;8.80;;;;;;;3.85;100.00;100021.47;5038939;28;20032;-69
2024/02/25 05:06:38;;;;;;;14.35;8.48;;;;;;;3.90;100.00;100027.06;5019914;28;20029;-69
2024/02/25 05:09:03;;;;;;;21.15;9.50;;;;;;;3.90;100.00;100030.56;5038693;28;20405;-69
2024/02/25 05:11:30;;;;;;;22.27;10.00;;;;;;;3.83;100.00;100021.63;5039197;28;20021;-68
2024/02/25 05:13:55;;;;;;;23.55;10.77;;;;;;;3.92;100.00;100043.72;5039455;28;20484;-68
2024/02/25 05:16:21;;;;;;;24.90;10.82;;;;;;;3.81;100.00;100014.81;5039419;28;20083;-68
2024/02/25 05:18:46;;;;;;;25.60;11.25;;;;;;;3.86;100.00;100026.59;5039807;28;20499;-68
2024/02/25 05:21:13;;;;;;;28.13;11.65;;;;;;;3.86;100.00;100029.25;5039088;28;20036;-69
2024/02/25 05:23:39;;;;;;;20.92;12.00;;;;;;;3.88;100.00;100032.59;5038517;28;20076;-72
2024/02/25 05:26:04;;;;;;;25.80;12.32;;;;;;;3.89;100.00;100039.56;5020859;28;20029;-69
2024/02/25 05:28:30;;;;;;;25.80;13.02;;;;;;;3.75;100.00;100019.00;5021874;28;20357;-68
2024/02/25 05:30:56;;;;;;;26.77;12.15;;;;;;;3.75;100.00;100017.19;5038442;28;20025;-69
2024/02/25 05:33:21;;;;;;;29.77;12.90;;;;;;;3.83;100.00;100034.94;5038343;28;20144;-68
2024/02/25 05:35:47;;;;;;;23.80;12.15;;;;;;;3.86;100.00;100041.75;5038959;28;20021;-68
2024/02/25 05:38:13;;;;;;;26.70;12.93;;;;;;;3.90;100.00;100040.38;5038926;28;20401;-68
2024/02/25 05:40:41;;;;;;;27.27;12.32;;;;;;;3.72;100.00;100019.34;5039424;28;20038;-68
2024/02/25 05:43:07;;;;;;;26.50;11.98;;;;;;;3.85;100.00;100040.91;5038992;28;20029;-68
2024/02/25 05:45:33;;;;;;;23.73;12.38;;;;;;;3.85;100.00;100046.25;5040179;28;20113;-69
2024/02/25 05:47:59;;;;;;;24.00;12.23;;;;;;;3.87;100.00;100044.22;5039139;28;20056;-68
2024/02/25 05:50:24;;;;;;;28.58;13.23;;;;;;;3.87;100.00;100048.72;5021808;28;20118;-68
2024/02/25 05:52:50;;;;;;;25.52;12.73;;;;;;;3.72;100.00;100024.69;5037348;28;20060;-68
2024/02/25 05:55:17;;;;;;;29.05;12.55;;;;;;;3.91;100.00;100055.38;5020488;28;20061;-68
2024/02/25 05:57:43;;;;;;;32.92;13.50;;;;;;;3.78;100.00;100039.97;5038808;28;20086;-71
2024/02/25 06:00:10;;;;;;;27.92;12.75;;;;;;;3.92;100.00;100049.84;5037170;28;20456;-68
2024/02/25 06:02:36;;;;;;;33.28;13.10;;;;;;;3.88;100.00;100061.84;5037364;28;20033;-68
2024/02/25 06:05:01;;;;;;;28.38;13.88;;;;;;;3.90;100.00;100059.00;5036725;28;20535;-68
2024/02/25 06:07:28;;;;;;;30.90;14.13;;;;;;;3.91;100.00;100060.69;5037870;28;20036;-68
2024/02/25 06:09:55;;;;;;;28.13;13.57;;;;;;;3.87;100.00;100057.53;5036796;28;20033;-68
2024/02/25 06:12:20;;;;;;;28.70;13.75;;;;;;;3.87;100.00;100067.34;5038582;28;20056;-68
2024/02/25 06:14:46;;;;;;;31.75;13.68;;;;;;;3.88;100.00;100066.34;5037326;28;20421;-68
2024/02/25 06:17:11;;;;;;;29.08;14.52;;;;;;;3.88;100.00;100066.34;5037240;28;20455;-68
2024/02/25 06:19:38;;;;;;;30.95;14.13;;;;;;;3.90;100.00;100070.47;5036531;28;20030;-69
2024/02/25 06:22:03;;;;;;;28.35;13.88;;;;;;;3.91;100.00;100066.00;5036577;28;20496;-68
2024/02/25 06:24:29;;;;;;;30.33;14.57;;;;;;;3.90;100.00;100081.13;5020362;28;20107;-68
2024/02/25 06:26:54;;;;;;;31.83;14.13;;;;;;;3.74;100.00;100049.25;5036114;28;20110;-69
2024/02/25 06:29:20;;;;;;;35.83;15.13;;;;;;;3.92;100.00;100076.47;5036116;28;20032;-69
2024/02/25 06:31:46;;;;;;;31.42;13.93;;;;;;;3.78;100.00;100055.91;5036353;28;20087;-67
2024/02/25 06:34:11;;;;;;;29.67;14.73;;;;;;;3.81;100.00;100070.69;5020984;28;20100;-68
2024/02/25 06:36:37;;;;;;;31.52;14.23;;;;;;;3.90;100.00;100094.44;5037923;28;20048;-70
2024/02/25 06:39:03;;;;;;;27.35;13.55;;;;;;;3.82;100.00;100088.34;5036713;28;20048;-68
2024/02/25 06:41:28;;;;;;;26.67;13.45;;;;;;;3.89;100.00;100092.78;5038276;28;20026;-68
2024/02/25 06:43:54;;;;;;;25.23;13.15;;;;;;;3.79;100.00;100083.34;5041358;28;20022;-73
2024/02/25 06:46:20;;;;;;;30.95;13.55;;;;;;;3.84;100.00;100092.50;5040332;28;20026;-68
2024/02/25 06:48:45;;;;;;;20.70;10.75;;;;;;;3.86;100.00;100094.97;5033612;28;20030;-68
2024/02/25 06:51:22;;;;;;;22.63;11.35;;;;;;;3.73;100.00;100077.72;5034226;28;20021;-71
2024/02/25 06:53:47;;;;;;;20.70;11.20;;;;;;;3.85;100.00;100093.31;5037942;28;20025;-67
2024/02/25 06:56:14;;;;;;;25.25;12.15;;;;;;;3.83;100.00;100090.81;5037582;28;20029;-69
2024/02/25 06:58:40;;;;;;;25.90;13.52;;;;;;;3.86;100.00;100102.94;5036779;28;20612;-66
2024/02/25 07:01:05;;;;;;;25.23;14.32;;;;;;;3.88;100.00;100104.44;5038039;28;20085;-70
2024/02/25 07:03:30;;;;;;;31.20;15.60;;;;;;;3.92;100.00;100094.28;5036170;28;20037;-70
2024/02/25 07:05:56;;;;;;;29.15;14.82;;;;;;;3.91;100.00;100097.94;5037754;28;20072;-67
2024/02/25 07:08:21;;;;;;;33.83;16.13;;;;;;;3.92;100.00;100105.75;5037552;28;20033;-69
2024/02/25 07:10:46;;;;;;;28.77;15.10;;;;;;;3.94;100.00;100105.56;5036678;28;20503;-69
2024/02/25 07:13:12;;;;;;;33.90;14.75;;;;;;;3.95;100.00;100102.75;5043377;28;20040;-68
2024/02/25 07:15:37;;;;;;;34.30;15.52;;;;;;;3.97;100.00;100107.88;5005048;28;20171;-68
2024/02/25 07:18:03;;;;;;;33.03;16.10;;;;;;;3.93;100.00;100098.59;5038439;28;20030;-68
2024/02/25 07:20:28;;;;;;;30.73;15.18;;;;;;;3.97;100.00;100111.41;5036874;28;20397;-67
2024/02/25 07:22:54;;;;;;;30.23;14.75;;;;;;;3.96;100.00;100108.88;5038729;28;20048;-66
2024/02/25 07:25:19;;;;;;;36.15;15.73;;;;;;;3.98;100.00;100120.22;5038947;28;20115;-68
2024/02/25 07:27:44;;;;;;;29.23;14.73;;;;;;;3.98;100.00;100122.88;5035889;28;20056;-67
2024/02/25 07:30:10;;;;;;;31.08;14.88;;;;;;;3.73;100.00;100077.72;5038754;28;20096;-74
2024/02/25 07:32:35;;;;;;;31.92;15.07;;;;;;;3.98;100.00;100114.88;5042856;28;20021;-66
2024/02/25 07:35:01;;;;;;;30.27;13.55;;;;;;;3.97;100.00;100115.88;5039692;28;20105;-67
2024/02/25 07:37:26;;;;;;;28.42;13.00;;;;;;;3.97;100.00;100118.53;5043488;28;20512;-71
2024/02/25 07:39:52;;;;;;;27.40;11.75;;;;;;;3.96;100.00;100119.53;5038925;28;20048;-69
2024/02/25 07:42:18;;;;;;;24.00;11.43;;;;;;;3.88;100.00;100103.63;5036621;28;20022;-69
2024/02/25 07:44:43;;;;;;;22.80;9.45;;;;;;;3.48;100.00;100049.56;5040708;28;20060;-70
2024/02/25 07:47:09;;;;;;;23.55;8.80;;;;;;;3.95;100.00;100129.34;5039829;28;20377;-70
2024/02/25 07:49:34;;;;;;;15.45;6.28;;;;;;;3.93;100.00;100128.69;5039937;28;20100;-68
2024/02/25 07:52:00;;;;;;;13.88;5.00;;;;;;;3.92;100.00;100135.03;5039736;28;20079;-69
2024/02/25 07:54:25;;;;;;;13.65;4.20;;;;;;;3.90;100.00;100145.00;5040801;28;20065;-70
2024/02/25 07:56:51;;;;;;;11.70;3.97;;;;;;;3.89;100.00;100137.22;5037372;28;20025;-67
2024/02/25 07:59:16;;;;;;;14.30;3.47;;;;;;;3.91;100.00;100143.19;5039988;28;20029;-69
2024/02/25 08:01:42;;;;;;;12.75;4.00;;;;;;;3.89;100.00;100137.22;5041294;28;20030;-68
2024/02/25 08:04:07;;;;;;;8.25;3.15;;;;;;;3.93;100.00;100143.84;5030603;28;20026;-69
2024/02/25 08:06:34;;;;;;;8.73;2.70;;;;;;;3.95;100.00;100157.81;5022733;28;20046;-70
2024/02/25 08:09:00;;;;;;;9.68;2.40;;;;;;;3.84;100.00;100140.41;5020025;28;20092;-69
2024/02/25 08:11:25;;;;;;;10.63;2.50;;;;;;;3.95;100.00;100149.81;5019933;28;20033;-68
2024/02/25 08:13:51;;;;;;;7.38;2.33;;;;;;;3.91;100.00;100143.19;5002924;28;20044;-68
2024/02/25 08:16:16;;;;;;;9.35;2.22;;;;;;;3.89;100.00;100163.81;5019975;28;20026;-68
2024/02/25 08:18:47;;;;;;;5.53;2.25;;;;;;;3.88;100.00;100162.16;5019436;28;20057;-67
2024/02/25 08:21:12;;;;;;;7.15;2.05;;;;;;;3.90;100.00;100171.63;5019132;28;20037;-68
2024/02/25 08:23:39;;;;;;;5.38;1.90;;;;;;;3.87;100.00;100174.63;5018443;28;20029;-67
2024/02/25 08:26:07;;;;;;;7.25;2.10;;;;;;;3.88;100.00;100180.78;5019534;28;20053;-72
2024/02/25 08:28:33;;;;;;;6.85;1.70;;;;;;;3.91;100.00;100178.63;5020963;28;20034;-68
2024/02/25 08:30:58;;;;;;;5.00;1.38;;;;;;;3.89;100.00;100174.47;5019062;28;20021;-68
2024/02/25 08:33:23;;;;;;;4.40;1.45;;;;;;;3.88;100.00;100188.78;5020026;28;20040;-67
2024/02/25 08:35:49;;;;;;;4.53;1.20;;;;;;;3.90;100.00;100194.75;5002014;28;20077;-67
2024/02/25 08:38:14;;;;;;;5.53;1.10;;;;;;;3.83;100.00;100193.78;5019404;28;20066;-68
2024/02/25 08:40:39;;;;;;;3.47;1.10;;;;;;;3.84;100.00;100204.25;5018862;28;20034;-67
2024/02/25 08:43:05;;;;;;;5.22;1.15;;;;;;;3.84;100.00;100214.06;5020234;28;20033;-67
2024/02/25 08:45:30;;;;;;;3.72;1.15;;;;;;;3.78;100.00;100196.97;5017845;28;20527;-70
2024/02/25 08:47:56;;;;;;;7.90;1.08;;;;;;;3.81;100.00;100201.94;5019227;28;20037;-67
2024/02/25 08:50:21;;;;;;;5.38;1.15;;;;;;;3.78;100.00;100204.13;5018829;28;20049;-68
2024/02/25 08:52:46;;;;;;;2.95;1.00;;;;;;;3.80;100.00;100202.91;5020738;28;20045;-68
2024/02/25 08:55:12;;;;;;;3.95;1.20;;;;;;;3.83;100.00;100199.09;5020613;28;20160;-68
2024/02/25 08:57:37;;;;;;;4.05;0.90;;;;;;;3.75;100.00;100184.00;5003232;28;20034;-68
2024/02/25 09:00:07;;;;;;;3.00;1.00;;;;;;;3.90;100.00;100203.56;5018703;28;20401;-68
2024/02/25 09:02:33;;;;;;;3.20;0.80;;;;;;;3.84;100.00;100182.13;5018792;28;20398;-68
2024/02/25 09:04:58;;;;;;;4.72;1.20;;;;;;;4.05;100.00;100209.03;5019195;28;20036;-68
2024/02/25 09:07:24;;;;;;;3.83;1.10;;;;;;;4.15;100.00;100214.97;5018526;28;20117;-68
2024/02/25 09:09:50;;;;;;;3.28;1.00;;;;;;;4.20;100.00;100214.44;5018161;28;20040;-68
2024/02/25 09:12:16;;;;;;;3.88;0.82;;;;;;;4.17;100.00;100220.97;5020786;28;20050;-68
2024/02/25 09:14:41;;;;;;;3.42;0.88;;;;;;;3.98;100.00;100200.88;5019178;28;20457;-68
2024/02/25 09:17:07;;;;;;;3.60;1.27;;;;;;;4.22;100.00;100231.09;5020714;28;20512;-67
2024/02/25 09:19:32;;;;;;;5.70;1.02;;;;;;;4.25;100.00;100222.75;5020748;28;20038;-69
2024/02/25 09:21:58;;;;;;;3.83;1.15;;;;;;;4.27;100.00;100230.56;5021633;28;20196;-68
2024/02/25 09:24:25;;;;;;;6.40;1.20;;;;;;;4.25;100.00;100241.41;5021176;28;20611;-69
2024/02/25 09:26:50;;;;;;;6.82;1.33;;;;;;;4.23;100.00;100233.56;5021551;28;20097;-70
2024/02/25 09:29:16;;;;;;;4.47;1.13;;;;;;;4.18;100.00;100238.59;5021379;28;20064;-69
2024/02/25 09:31:41;;;;;;;3.95;1.50;;;;;;;4.17;100.00;100236.94;5021083;28;20030;-68
2024/02/25 09:34:10;;;;;;;4.97;1.33;;;;;;;4.15;100.00;100240.78;5019678;28;20030;-68
2024/02/25 09:36:36;;;;;;;4.50;1.50;;;;;;;4.17;100.00;100242.28;4988312;28;20025;-68
2024/02/25 09:39:03;;;;;;;8.30;1.80;;;;;;;4.14;100.00;100245.28;5019971;28;20064;-68
2024/02/25 09:41:33;;;;;;;3.63;1.50;;;;;;;4.15;100.00;100248.75;5020306;28;20038;-68
2024/02/25 09:44:01;;;;;;;9.90;1.75;;;;;;;4.14;100.00;100253.25;5021587;28;20092;-68
2024/02/25 09:46:34;;;;;;;6.78;1.80;;;;;;;4.16;100.00;100261.91;5021707;28;20038;-68
2024/02/25 09:49:00;;;;;;;7.88;1.83;;;;;;;4.18;100.00;100257.25;5021000;28;20034;-68
2024/02/25 09:51:26;;;;;;;9.45;1.90;;;;;;;4.19;100.00;100261.56;5020712;28;20064;-68
2024/02/25 09:53:54;;;;;;;7.88;2.10;;;;;;;4.19;100.00;100258.06;5020703;28;20029;-68
2024/02/25 09:56:20;;;;;;;10.63;2.33;;;;;;;4.20;100.00;100262.38;5019522;28;20057;-68
2024/02/25 09:58:47;;;;;;;8.23;2.20;;;;;;;4.22;100.00;100263.06;5020017;28;20052;-67
2024/02/25 10:01:13;;;;;;;13.15;2.80;;;;;;;4.26;100.00;100279.50;5020910;28;20392;-68
2024/02/25 10:03:39;;;;;;;14.48;3.05;;;;;;;4.24;100.00;100275.19;5020120;28;20025;-69
2024/02/25 10:06:05;;;;;;;12.63;3.60;;;;;;;4.18;100.00;100264.41;5018181;28;20080;-68
2024/02/25 10:08:44;;;;;;;12.40;4.30;;;;;;;4.25;100.00;100284.00;5017445;28;20022;-69
2024/02/25 10:11:10;;;;;;;16.25;4.93;;;;;;;4.26;100.00;100276.84;5016810;28;20025;-69
2024/02/25 10:13:36;;;;;;;16.88;4.38;;;;;;;4.29;100.00;100282.66;5017724;28;20029;-68
2024/02/25 10:16:01;;;;;;;14.88;4.18;;;;;;;4.31;100.00;100290.50;5017970;28;20093;-68
2024/02/25 10:18:26;;;;;;;17.27;4.90;;;;;;;4.33;100.00;100288.47;5019477;28;20044;-68
2024/02/25 10:21:00;;;;;;;16.15;5.13;;;;;;;4.15;100.00;100257.56;5018563;28;20046;-68
2024/02/25 10:23:27;;;;;;;19.75;6.18;;;;;;;4.29;100.00;100288.00;5019342;28;20030;-68
2024/02/25 10:25:52;;;;;;;20.17;7.68;;;;;;;4.33;100.00;100297.28;5019306;28;20369;-67
2024/02/25 10:28:18;;;;;;;24.67;9.23;;;;;;;4.34;100.00;100290.13;5019494;28;20282;-68
2024/02/25 10:31:00;;;;;;;23.23;11.35;;;;;;;4.24;100.00;100275.19;5019891;28;20026;-69
2024/02/25 10:33:25;;;;;;;28.48;12.63;;;;;;;4.28;100.00;100266.88;5018373;28;20022;-68
2024/02/25 10:35:52;;;;;;;33.10;15.75;;;;;;;4.44;100.00;100298.78;5002042;28;20034;-67
2024/02/25 10:38:20;;;;;;;33.25;16.40;;;;;;;4.44;100.00;100296.94;5019806;28;20065;-68
2024/02/25 10:40:46;;;;;;;34.03;16.60;;;;;;;4.34;100.00;100277.66;5022554;28;20034;-68
2024/02/25 10:43:13;;;;;;;32.72;16.00;;;;;;;4.46;100.00;100300.25;5027711;28;20040;-78
2024/02/25 10:45:41;;;;;;;31.80;16.15;;;;;;;4.48;100.00;100300.09;5010724;28;20053;-70
2024/02/25 10:48:10;;;;;;;34.13;16.20;;;;;;;4.37;100.00;100293.31;5027476;28;20097;-67
2024/02/25 10:50:38;;;;;;;31.52;15.07;;;;;;;4.44;100.00;100306.78;5024605;28;20037;-72
2024/02/25 10:53:04;;;;;;;34.67;15.52;;;;;;;4.29;100.00;100276.50;5026678;28;20041;-70
2024/02/25 10:55:31;;;;;;;29.40;16.17;;;;;;;4.45;100.00;100306.59;5025230;28;20057;-67
2024/02/25 10:58:00;;;;;;;32.63;16.35;;;;;;;4.52;100.00;100298.75;5024087;28;20198;-67
2024/02/25 11:00:26;;;;;;;33.92;16.15;;;;;;;4.59;100.00;100299.72;5022555;28;20132;-74
2024/02/25 11:02:53;;;;;;;29.23;15.23;;;;;;;4.66;100.00;100299.84;5013380;28;20071;-67
2024/02/25 11:05:19;;;;;;;33.53;15.90;;;;;;;4.62;100.00;100291.38;5019753;28;20026;-68
2024/02/25 11:07:46;;;;;;;31.90;16.10;;;;;;;4.60;100.00;100284.53;5018581;28;20037;-67
2024/02/25 11:10:21;;;;;;;25.77;14.93;;;;;;;4.79;100.00;100299.28;5019315;28;20109;-68
2024/02/25 11:12:51;;;;;;;26.77;14.73;;;;;;;4.85;100.00;100304.75;5022781;28;20033;-66
2024/02/25 11:15:21;;;;;;;25.77;14.48;;;;;;;4.97;100.00;100302.56;5022600;28;20389;-81